sensor_id;sensor_type;location;lat;lon;timestamp;temperature;humidity
24800;DHT22;12897;50.812;4.430;2023-09-07T00:02:14;19.10;99.90
24800;DHT22;12897;50.812;4.430;2023-09-07T00:04:42;19.20;99.90
24800;DHT22;12897;50.812;4.430;2023-09-07T00:07:09;19.20;99.90
24800;DHT22;12897;50.812;4.430;2023-09-07T00:09:37;19.10;99.90
24800;DHT22;12897;50.812;4.430;2023-09-07T00:12:05;19.00;99.90
24800;DHT22;12897;50.812;4.430;2023-09-07T00:14:32;19.10;99.90
24800;DHT22;12897;50.812;4.430;2023-09-07T00:17:00;19.10;99.90
24800;DHT22;12897;50.812;4.430;2023-09-07T00:19:27;19.10;99.90
24800;DHT22;12897;50.812;4.430;2023-09-07T00:21:56;19.20;99.90
24800;DHT22;12897;50.812;4.430;2023-09-07T00:24:24;19.20;99.90
24800;DHT22;12897;50.812;4.430;2023-09-07T00:26:52;19.20;99.90
24800;DHT22;12897;50.812;4.430;2023-09-07T00:29:19;19.20;99.90
24800;DHT22;12897;50.812;4.430;2023-09-07T00:31:48;19.20;99.90
24800;DHT22;12897;50.812;4.430;2023-09-07T00:34:16;19.10;99.90
24800;DHT22;12897;50.812;4.430;2023-09-07T00:36:43;19.00;99.90
24800;DHT22;12897;50.812;4.430;2023-09-07T00:39:11;18.90;99.90
24800;DHT22;12897;50.812;4.430;2023-09-07T00:41:39;18.90;99.90
24800;DHT22;12897;50.812;4.430;2023-09-07T00:44:06;18.90;99.90
24800;DHT22;12897;50.812;4.430;2023-09-07T00:46:34;18.80;99.90
24800;DHT22;12897;50.812;4.430;2023-09-07T00:49:02;18.70;99.90
24800;DHT22;12897;50.812;4.430;2023-09-07T00:51:31;18.80;99.90
24800;DHT22;12897;50.812;4.430;2023-09-07T00:53:59;18.70;99.90
24800;DHT22;12897;50.812;4.430;2023-09-07T00:56:27;18.70;99.90
24800;DHT22;12897;50.812;4.430;2023-09-07T00:58:55;18.80;99.90
24800;DHT22;12897;50.812;4.430;2023-09-07T01:01:25;18.90;99.90
24800;DHT22;12897;50.812;4.430;2023-09-07T01:03:53;18.80;99.90
24800;DHT22;12897;50.812;4.430;2023-09-07T01:06:30;18.80;99.90
24800;DHT22;12897;50.812;4.430;2023-09-07T01:09:03;18.70;99.90
24800;DHT22;12897;50.812;4.430;2023-09-07T01:11:35;18.60;99.90
24800;DHT22;12897;50.812;4.430;2023-09-07T01:14:01;18.60;99.90
24800;DHT22;12897;50.812;4.430;2023-09-07T01:16:31;18.50;99.90
24800;DHT22;12897;50.812;4.430;2023-09-07T01:19:02;18.50;99.90
24800;DHT22;12897;50.812;4.430;2023-09-07T01:21:36;18.60;99.90
24800;DHT22;12897;50.812;4.430;2023-09-07T01:24:08;18.60;99.90
24800;DHT22;12897;50.812;4.430;2023-09-07T01:26:37;18.60;99.90
24800;DHT22;12897;50.812;4.430;2023-09-07T01:29:09;18.70;99.90
24800;DHT22;12897;50.812;4.430;2023-09-07T01:31:37;18.70;99.90
24800;DHT22;12897;50.812;4.430;2023-09-07T01:34:05;18.60;99.90
24800;DHT22;12897;50.812;4.430;2023-09-07T01:36:33;18.50;99.90
24800;DHT22;12897;50.812;4.430;2023-09-07T01:39:01;18.40;99.90
24800;DHT22;12897;50.812;4.430;2023-09-07T01:41:28;18.40;99.90
24800;DHT22;12897;50.812;4.430;2023-09-07T01:43:57;18.40;99.90
24800;DHT22;12897;50.812;4.430;2023-09-07T01:46:24;18.40;99.90
24800;DHT22;12897;50.812;4.430;2023-09-07T01:48:52;18.50;99.90
24800;DHT22;12897;50.812;4.430;2023-09-07T01:51:20;18.40;99.90
24800;DHT22;12897;50.812;4.430;2023-09-07T01:53:48;18.40;99.90
24800;DHT22;12897;50.812;4.430;2023-09-07T01:56:18;18.40;99.90
24800;DHT22;12897;50.812;4.430;2023-09-07T01:58:46;18.50;99.90
24800;DHT22;12897;50.812;4.430;2023-09-07T02:01:24;18.50;99.90
24800;DHT22;12897;50.812;4.430;2023-09-07T02:03:52;18.50;99.90
24800;DHT22;12897;50.812;4.430;2023-09-07T02:06:20;18.40;99.90
24800;DHT22;12897;50.812;4.430;2023-09-07T02:08:47;18.30;99.90
24800;DHT22;12897;50.812;4.430;2023-09-07T02:11:15;18.30;99.90
24800;DHT22;12897;50.812;4.430;2023-09-07T02:13:43;18.30;99.90
24800;DHT22;12897;50.812;4.430;2023-09-07T02:16:11;18.20;99.90
24800;DHT22;12897;50.812;4.430;2023-09-07T02:18:38;18.20;99.90
24800;DHT22;12897;50.812;4.430;2023-09-07T02:21:07;18.20;99.90
24800;DHT22;12897;50.812;4.430;2023-09-07T02:23:35;18.20;99.90
24800;DHT22;12897;50.812;4.430;2023-09-07T02:26:06;18.10;99.90
24800;DHT22;12897;50.812;4.430;2023-09-07T02:28:34;18.10;99.90
24800;DHT22;12897;50.812;4.430;2023-09-07T02:31:05;18.00;99.90
24800;DHT22;12897;50.812;4.430;2023-09-07T02:33:33;17.90;99.90
24800;DHT22;12897;50.812;4.430;2023-09-07T02:36:02;18.00;99.90
24800;DHT22;12897;50.812;4.430;2023-09-07T02:38:29;17.90;99.90
24800;DHT22;12897;50.812;4.430;2023-09-07T02:40:57;17.90;99.90
24800;DHT22;12897;50.812;4.430;2023-09-07T02:43:25;17.90;99.90
24800;DHT22;12897;50.812;4.430;2023-09-07T02:45:52;17.80;99.90
24800;DHT22;12897;50.812;4.430;2023-09-07T02:48:20;17.80;99.90
24800;DHT22;12897;50.812;4.430;2023-09-07T02:50:49;17.90;99.90
24800;DHT22;12897;50.812;4.430;2023-09-07T02:53:17;17.90;99.90
24800;DHT22;12897;50.812;4.430;2023-09-07T02:55:44;17.90;99.90
24800;DHT22;12897;50.812;4.430;2023-09-07T02:58:12;17.90;99.90
24800;DHT22;12897;50.812;4.430;2023-09-07T03:00:46;17.90;99.90
24800;DHT22;12897;50.812;4.430;2023-09-07T03:03:14;17.80;99.90
24800;DHT22;12897;50.812;4.430;2023-09-07T03:05:43;17.90;99.90
24800;DHT22;12897;50.812;4.430;2023-09-07T03:08:11;17.80;99.90
24800;DHT22;12897;50.812;4.430;2023-09-07T03:10:39;17.90;99.90
24800;DHT22;12897;50.812;4.430;2023-09-07T03:13:07;17.80;99.90
24800;DHT22;12897;50.812;4.430;2023-09-07T03:15:35;17.80;99.90
24800;DHT22;12897;50.812;4.430;2023-09-07T03:18:03;17.80;99.90
24800;DHT22;12897;50.812;4.430;2023-09-07T03:20:35;17.80;99.90
24800;DHT22;12897;50.812;4.430;2023-09-07T03:23:02;17.70;99.90
24800;DHT22;12897;50.812;4.430;2023-09-07T03:25:30;17.70;99.90
24800;DHT22;12897;50.812;4.430;2023-09-07T03:27:57;17.70;99.90
24800;DHT22;12897;50.812;4.430;2023-09-07T03:30:25;17.70;99.90
24800;DHT22;12897;50.812;4.430;2023-09-07T03:32:52;17.70;99.90
24800;DHT22;12897;50.812;4.430;2023-09-07T03:35:20;17.60;99.90
24800;DHT22;12897;50.812;4.430;2023-09-07T03:37:48;17.70;99.90
24800;DHT22;12897;50.812;4.430;2023-09-07T03:40:15;17.60;99.90
24800;DHT22;12897;50.812;4.430;2023-09-07T03:42:43;17.60;99.90
24800;DHT22;12897;50.812;4.430;2023-09-07T03:45:12;17.60;99.90
24800;DHT22;12897;50.812;4.430;2023-09-07T03:47:40;17.60;99.90
24800;DHT22;12897;50.812;4.430;2023-09-07T03:50:08;17.50;99.90
24800;DHT22;12897;50.812;4.430;2023-09-07T03:52:36;17.40;99.90
24800;DHT22;12897;50.812;4.430;2023-09-07T03:55:04;17.40;99.90
24800;DHT22;12897;50.812;4.430;2023-09-07T03:57:31;17.50;99.90
24800;DHT22;12897;50.812;4.430;2023-09-07T04:00:00;17.50;99.90
24800;DHT22;12897;50.812;4.430;2023-09-07T04:02:29;17.50;99.90
24800;DHT22;12897;50.812;4.430;2023-09-07T04:04:57;17.50;99.90
24800;DHT22;12897;50.812;4.430;2023-09-07T04:07:25;17.40;99.90
24800;DHT22;12897;50.812;4.430;2023-09-07T04:09:53;17.40;99.90
24800;DHT22;12897;50.812;4.430;2023-09-07T04:12:20;17.40;99.90
24800;DHT22;12897;50.812;4.430;2023-09-07T04:14:48;17.30;99.90
24800;DHT22;12897;50.812;4.430;2023-09-07T04:17:15;17.40;99.90
24800;DHT22;12897;50.812;4.430;2023-09-07T04:19:43;17.30;99.90
24800;DHT22;12897;50.812;4.430;2023-09-07T04:22:12;17.30;99.90
24800;DHT22;12897;50.812;4.430;2023-09-07T04:24:39;17.20;99.90
24800;DHT22;12897;50.812;4.430;2023-09-07T04:27:07;17.30;99.90
24800;DHT22;12897;50.812;4.430;2023-09-07T04:29:34;17.40;99.90
24800;DHT22;12897;50.812;4.430;2023-09-07T04:32:02;17.40;99.90
24800;DHT22;12897;50.812;4.430;2023-09-07T04:34:29;17.30;99.90
24800;DHT22;12897;50.812;4.430;2023-09-07T04:36:58;17.20;99.90
24800;DHT22;12897;50.812;4.430;2023-09-07T04:39:26;17.30;99.90
24800;DHT22;12897;50.812;4.430;2023-09-07T04:41:53;17.30;99.90
24800;DHT22;12897;50.812;4.430;2023-09-07T04:44:21;17.30;99.90
24800;DHT22;12897;50.812;4.430;2023-09-07T04:46:48;17.30;99.90
24800;DHT22;12897;50.812;4.430;2023-09-07T04:49:18;17.30;99.90
24800;DHT22;12897;50.812;4.430;2023-09-07T04:51:45;17.30;99.90
24800;DHT22;12897;50.812;4.430;2023-09-07T04:54:13;17.20;99.90
24800;DHT22;12897;50.812;4.430;2023-09-07T04:56:42;17.20;99.90
24800;DHT22;12897;50.812;4.430;2023-09-07T04:59:09;17.10;99.90
24800;DHT22;12897;50.812;4.430;2023-09-07T05:01:37;17.10;99.90
24800;DHT22;12897;50.812;4.430;2023-09-07T05:04:05;17.10;99.90
24800;DHT22;12897;50.812;4.430;2023-09-07T05:06:32;17.10;99.90
24800;DHT22;12897;50.812;4.430;2023-09-07T05:09:01;17.20;99.90
24800;DHT22;12897;50.812;4.430;2023-09-07T05:11:29;17.20;99.90
24800;DHT22;12897;50.812;4.430;2023-09-07T05:13:56;17.20;99.90
24800;DHT22;12897;50.812;4.430;2023-09-07T05:16:24;17.20;99.90
24800;DHT22;12897;50.812;4.430;2023-09-07T05:18:51;17.10;99.90
24800;DHT22;12897;50.812;4.430;2023-09-07T05:21:19;17.10;99.90
24800;DHT22;12897;50.812;4.430;2023-09-07T05:23:47;17.20;99.90
24800;DHT22;12897;50.812;4.430;2023-09-07T05:26:14;17.30;99.90
24800;DHT22;12897;50.812;4.430;2023-09-07T05:28:42;17.20;99.90
24800;DHT22;12897;50.812;4.430;2023-09-07T05:31:09;17.30;99.90
24800;DHT22;12897;50.812;4.430;2023-09-07T05:33:37;17.40;99.90
24800;DHT22;12897;50.812;4.430;2023-09-07T05:36:05;17.30;99.90
24800;DHT22;12897;50.812;4.430;2023-09-07T05:38:32;17.40;99.90
24800;DHT22;12897;50.812;4.430;2023-09-07T05:41:00;17.40;99.90
24800;DHT22;12897;50.812;4.430;2023-09-07T05:43:27;17.40;99.90
24800;DHT22;12897;50.812;4.430;2023-09-07T05:45:55;17.40;99.90
24800;DHT22;12897;50.812;4.430;2023-09-07T05:48:22;17.40;99.90
24800;DHT22;12897;50.812;4.430;2023-09-07T05:50:50;17.50;99.90
24800;DHT22;12897;50.812;4.430;2023-09-07T05:53:19;17.60;99.90
24800;DHT22;12897;50.812;4.430;2023-09-07T05:55:47;17.50;99.90
24800;DHT22;12897;50.812;4.430;2023-09-07T05:58:14;17.50;99.90
24800;DHT22;12897;50.812;4.430;2023-09-07T06:00:42;17.50;99.90
24800;DHT22;12897;50.812;4.430;2023-09-07T06:03:10;17.60;99.90
24800;DHT22;12897;50.812;4.430;2023-09-07T06:05:38;18.00;99.90
24800;DHT22;12897;50.812;4.430;2023-09-07T06:08:06;18.30;99.90
24800;DHT22;12897;50.812;4.430;2023-09-07T06:10:34;18.70;99.90
24800;DHT22;12897;50.812;4.430;2023-09-07T06:13:02;18.90;99.90
24800;DHT22;12897;50.812;4.430;2023-09-07T06:15:30;19.20;99.90
24800;DHT22;12897;50.812;4.430;2023-09-07T06:17:57;19.50;99.90
24800;DHT22;12897;50.812;4.430;2023-09-07T06:20:25;19.60;99.90
24800;DHT22;12897;50.812;4.430;2023-09-07T06:22:53;19.70;99.90
24800;DHT22;12897;50.812;4.430;2023-09-07T06:25:20;19.90;99.90
24800;DHT22;12897;50.812;4.430;2023-09-07T06:27:49;19.90;99.90
24800;DHT22;12897;50.812;4.430;2023-09-07T06:30:16;20.00;99.90
24800;DHT22;12897;50.812;4.430;2023-09-07T06:32:45;20.00;99.90
24800;DHT22;12897;50.812;4.430;2023-09-07T06:35:14;20.00;99.90
24800;DHT22;12897;50.812;4.430;2023-09-07T06:37:42;20.00;99.90
24800;DHT22;12897;50.812;4.430;2023-09-07T06:40:13;20.10;99.90
24800;DHT22;12897;50.812;4.430;2023-09-07T06:42:43;20.10;99.90
24800;DHT22;12897;50.812;4.430;2023-09-07T06:45:11;20.20;99.90
24800;DHT22;12897;50.812;4.430;2023-09-07T06:47:38;20.30;99.90
24800;DHT22;12897;50.812;4.430;2023-09-07T06:50:07;20.30;99.90
24800;DHT22;12897;50.812;4.430;2023-09-07T06:52:35;20.30;99.90
24800;DHT22;12897;50.812;4.430;2023-09-07T06:55:03;20.30;99.90
24800;DHT22;12897;50.812;4.430;2023-09-07T06:57:30;20.40;99.90
24800;DHT22;12897;50.812;4.430;2023-09-07T07:00:00;20.50;99.90
24800;DHT22;12897;50.812;4.430;2023-09-07T07:02:27;20.60;99.90
24800;DHT22;12897;50.812;4.430;2023-09-07T07:04:55;20.70;99.90
24800;DHT22;12897;50.812;4.430;2023-09-07T07:07:22;20.80;99.90
24800;DHT22;12897;50.812;4.430;2023-09-07T07:09:50;20.90;99.90
24800;DHT22;12897;50.812;4.430;2023-09-07T07:12:19;21.00;99.90
24800;DHT22;12897;50.812;4.430;2023-09-07T07:14:47;21.30;99.90
24800;DHT22;12897;50.812;4.430;2023-09-07T07:17:15;21.40;99.90
24800;DHT22;12897;50.812;4.430;2023-09-07T07:19:43;21.50;99.90
24800;DHT22;12897;50.812;4.430;2023-09-07T07:22:12;21.70;99.90
24800;DHT22;12897;50.812;4.430;2023-09-07T07:24:40;21.70;99.90
24800;DHT22;12897;50.812;4.430;2023-09-07T07:27:08;21.70;99.90
24800;DHT22;12897;50.812;4.430;2023-09-07T07:29:37;21.70;99.90
24800;DHT22;12897;50.812;4.430;2023-09-07T07:32:05;21.90;99.90
24800;DHT22;12897;50.812;4.430;2023-09-07T07:34:33;21.90;99.90
24800;DHT22;12897;50.812;4.430;2023-09-07T07:37:00;21.90;99.90
24800;DHT22;12897;50.812;4.430;2023-09-07T07:39:28;21.90;99.90
24800;DHT22;12897;50.812;4.430;2023-09-07T07:41:57;22.00;99.90
24800;DHT22;12897;50.812;4.430;2023-09-07T07:44:26;22.20;99.90
24800;DHT22;12897;50.812;4.430;2023-09-07T07:46:53;22.30;99.90
24800;DHT22;12897;50.812;4.430;2023-09-07T07:49:21;22.30;99.90
24800;DHT22;12897;50.812;4.430;2023-09-07T07:51:49;22.30;99.90
24800;DHT22;12897;50.812;4.430;2023-09-07T07:54:18;22.50;99.90
24800;DHT22;12897;50.812;4.430;2023-09-07T07:56:45;22.60;99.90
24800;DHT22;12897;50.812;4.430;2023-09-07T07:59:13;22.70;99.90
24800;DHT22;12897;50.812;4.430;2023-09-07T08:01:40;22.70;99.90
24800;DHT22;12897;50.812;4.430;2023-09-07T08:04:09;22.70;99.90
24800;DHT22;12897;50.812;4.430;2023-09-07T08:06:36;22.90;99.90
24800;DHT22;12897;50.812;4.430;2023-09-07T08:09:04;22.90;99.90
24800;DHT22;12897;50.812;4.430;2023-09-07T08:11:32;22.80;99.90
24800;DHT22;12897;50.812;4.430;2023-09-07T08:13:59;22.70;99.90
24800;DHT22;12897;50.812;4.430;2023-09-07T08:16:28;22.90;99.90
24800;DHT22;12897;50.812;4.430;2023-09-07T08:18:55;23.00;99.90
24800;DHT22;12897;50.812;4.430;2023-09-07T08:21:25;23.10;99.90
24800;DHT22;12897;50.812;4.430;2023-09-07T08:23:53;23.30;99.90
24800;DHT22;12897;50.812;4.430;2023-09-07T08:26:20;23.30;99.90
24800;DHT22;12897;50.812;4.430;2023-09-07T08:28:48;23.20;99.90
24800;DHT22;12897;50.812;4.430;2023-09-07T08:31:15;23.30;99.90
24800;DHT22;12897;50.812;4.430;2023-09-07T08:33:45;23.40;99.90
24800;DHT22;12897;50.812;4.430;2023-09-07T08:36:12;23.50;99.90
24800;DHT22;12897;50.812;4.430;2023-09-07T08:38:41;23.40;99.90
24800;DHT22;12897;50.812;4.430;2023-09-07T08:41:09;23.50;99.90
24800;DHT22;12897;50.812;4.430;2023-09-07T08:43:39;23.40;99.90
24800;DHT22;12897;50.812;4.430;2023-09-07T08:46:17;23.50;99.90
24800;DHT22;12897;50.812;4.430;2023-09-07T08:48:45;23.50;99.90
24800;DHT22;12897;50.812;4.430;2023-09-07T08:51:15;23.60;99.90
24800;DHT22;12897;50.812;4.430;2023-09-07T08:53:44;23.70;99.90
24800;DHT22;12897;50.812;4.430;2023-09-07T08:56:17;23.70;99.90
24800;DHT22;12897;50.812;4.430;2023-09-07T08:58:45;23.70;99.90
24800;DHT22;12897;50.812;4.430;2023-09-07T09:01:15;23.70;99.90
24800;DHT22;12897;50.812;4.430;2023-09-07T09:03:43;23.80;99.90
24800;DHT22;12897;50.812;4.430;2023-09-07T09:06:11;23.90;99.90
24800;DHT22;12897;50.812;4.430;2023-09-07T09:08:47;23.90;99.90
24800;DHT22;12897;50.812;4.430;2023-09-07T09:11:17;24.00;99.90
24800;DHT22;12897;50.812;4.430;2023-09-07T09:13:46;24.10;99.90
24800;DHT22;12897;50.812;4.430;2023-09-07T09:16:14;24.10;99.90
24800;DHT22;12897;50.812;4.430;2023-09-07T09:18:50;24.10;99.90
24800;DHT22;12897;50.812;4.430;2023-09-07T09:21:19;24.20;99.90
24800;DHT22;12897;50.812;4.430;2023-09-07T09:23:49;24.20;99.90
24800;DHT22;12897;50.812;4.430;2023-09-07T09:26:18;24.30;99.90
24800;DHT22;12897;50.812;4.430;2023-09-07T09:28:47;24.30;99.90
24800;DHT22;12897;50.812;4.430;2023-09-07T09:31:17;24.40;99.90
24800;DHT22;12897;50.812;4.430;2023-09-07T09:33:49;24.50;99.90
24800;DHT22;12897;50.812;4.430;2023-09-07T09:36:18;24.40;99.90
24800;DHT22;12897;50.812;4.430;2023-09-07T09:38:47;24.40;99.90
24800;DHT22;12897;50.812;4.430;2023-09-07T09:41:18;24.30;99.90
24800;DHT22;12897;50.812;4.430;2023-09-07T09:43:48;24.50;99.90
24800;DHT22;12897;50.812;4.430;2023-09-07T09:46:18;24.60;99.90
24800;DHT22;12897;50.812;4.430;2023-09-07T09:48:46;24.70;99.90
24800;DHT22;12897;50.812;4.430;2023-09-07T09:51:16;24.70;99.90
24800;DHT22;12897;50.812;4.430;2023-09-07T09:53:45;24.70;99.90
24800;DHT22;12897;50.812;4.430;2023-09-07T09:56:13;24.70;99.90
24800;DHT22;12897;50.812;4.430;2023-09-07T09:58:40;24.90;99.90
24800;DHT22;12897;50.812;4.430;2023-09-07T10:01:09;24.90;99.90
24800;DHT22;12897;50.812;4.430;2023-09-07T10:03:42;24.90;99.90
24800;DHT22;12897;50.812;4.430;2023-09-07T10:06:17;24.90;99.90
24800;DHT22;12897;50.812;4.430;2023-09-07T10:08:40;24.90;99.90
24800;DHT22;12897;50.812;4.430;2023-09-07T10:11:09;25.00;99.90
24800;DHT22;12897;50.812;4.430;2023-09-07T10:13:37;25.10;99.90
24800;DHT22;12897;50.812;4.430;2023-09-07T10:16:06;25.10;99.90
24800;DHT22;12897;50.812;4.430;2023-09-07T10:18:38;25.10;99.90
24800;DHT22;12897;50.812;4.430;2023-09-07T10:21:06;25.10;99.90
24800;DHT22;12897;50.812;4.430;2023-09-07T10:23:42;25.20;99.90
24800;DHT22;12897;50.812;4.430;2023-09-07T10:26:15;25.20;99.90
24800;DHT22;12897;50.812;4.430;2023-09-07T10:28:44;25.30;99.90
24800;DHT22;12897;50.812;4.430;2023-09-07T10:31:19;25.40;99.90
24800;DHT22;12897;50.812;4.430;2023-09-07T10:33:47;25.40;99.90
24800;DHT22;12897;50.812;4.430;2023-09-07T10:36:23;25.40;99.90
24800;DHT22;12897;50.812;4.430;2023-09-07T10:38:51;25.40;99.90
24800;DHT22;12897;50.812;4.430;2023-09-07T10:41:20;25.60;99.90
24800;DHT22;12897;50.812;4.430;2023-09-07T10:43:50;25.60;99.90
24800;DHT22;12897;50.812;4.430;2023-09-07T10:46:21;25.60;99.90
24800;DHT22;12897;50.812;4.430;2023-09-07T10:48:53;25.70;99.90
24800;DHT22;12897;50.812;4.430;2023-09-07T10:51:22;25.80;99.90
24800;DHT22;12897;50.812;4.430;2023-09-07T10:53:50;25.80;99.90
24800;DHT22;12897;50.812;4.430;2023-09-07T10:56:18;25.90;99.90
24800;DHT22;12897;50.812;4.430;2023-09-07T10:58:46;26.00;99.90
24800;DHT22;12897;50.812;4.430;2023-09-07T11:01:15;26.00;99.90
24800;DHT22;12897;50.812;4.430;2023-09-07T11:03:43;26.00;99.90
24800;DHT22;12897;50.812;4.430;2023-09-07T11:06:14;26.00;99.90
24800;DHT22;12897;50.812;4.430;2023-09-07T11:08:41;26.10;99.90
24800;DHT22;12897;50.812;4.430;2023-09-07T11:11:09;26.20;99.90
24800;DHT22;12897;50.812;4.430;2023-09-07T11:13:37;26.20;99.90
24800;DHT22;12897;50.812;4.430;2023-09-07T11:16:09;26.30;99.90
24800;DHT22;12897;50.812;4.430;2023-09-07T11:18:37;26.40;99.90
24800;DHT22;12897;50.812;4.430;2023-09-07T11:21:04;26.50;99.90
24800;DHT22;12897;50.812;4.430;2023-09-07T11:23:37;26.50;99.90
24800;DHT22;12897;50.812;4.430;2023-09-07T11:26:08;26.70;99.90
24800;DHT22;12897;50.812;4.430;2023-09-07T11:28:37;26.70;99.90
24800;DHT22;12897;50.812;4.430;2023-09-07T11:31:05;26.50;99.90
24800;DHT22;12897;50.812;4.430;2023-09-07T11:33:33;26.50;99.90
24800;DHT22;12897;50.812;4.430;2023-09-07T11:36:02;26.70;99.90
24800;DHT22;12897;50.812;4.430;2023-09-07T11:38:42;26.70;99.90
24800;DHT22;12897;50.812;4.430;2023-09-07T11:40:59;26.80;99.90
24800;DHT22;12897;50.812;4.430;2023-09-07T11:43:27;26.80;99.90
24800;DHT22;12897;50.812;4.430;2023-09-07T11:45:55;26.90;99.90
24800;DHT22;12897;50.812;4.430;2023-09-07T11:48:23;27.00;99.90
24800;DHT22;12897;50.812;4.430;2023-09-07T11:50:50;27.00;99.90
24800;DHT22;12897;50.812;4.430;2023-09-07T11:53:18;26.80;99.90
24800;DHT22;12897;50.812;4.430;2023-09-07T11:55:45;26.90;99.90
24800;DHT22;12897;50.812;4.430;2023-09-07T11:58:13;27.00;99.90
24800;DHT22;12897;50.812;4.430;2023-09-07T12:00:40;27.10;99.90
24800;DHT22;12897;50.812;4.430;2023-09-07T12:03:08;27.10;99.90
24800;DHT22;12897;50.812;4.430;2023-09-07T12:05:36;27.00;99.90
24800;DHT22;12897;50.812;4.430;2023-09-07T12:08:05;27.20;99.90
24800;DHT22;12897;50.812;4.430;2023-09-07T12:10:33;27.20;99.90
24800;DHT22;12897;50.812;4.430;2023-09-07T12:13:01;27.30;99.90
24800;DHT22;12897;50.812;4.430;2023-09-07T12:15:29;27.30;99.90
24800;DHT22;12897;50.812;4.430;2023-09-07T12:17:57;27.30;99.90
24800;DHT22;12897;50.812;4.430;2023-09-07T12:20:24;27.30;99.90
24800;DHT22;12897;50.812;4.430;2023-09-07T12:22:52;27.40;99.90
24800;DHT22;12897;50.812;4.430;2023-09-07T12:25:20;27.40;99.90
24800;DHT22;12897;50.812;4.430;2023-09-07T12:27:48;27.50;99.90
24800;DHT22;12897;50.812;4.430;2023-09-07T12:30:18;27.50;99.90
24800;DHT22;12897;50.812;4.430;2023-09-07T12:32:47;27.60;99.90
24800;DHT22;12897;50.812;4.430;2023-09-07T12:35:14;27.50;99.90
24800;DHT22;12897;50.812;4.430;2023-09-07T12:37:42;27.50;99.90
24800;DHT22;12897;50.812;4.430;2023-09-07T12:40:11;27.50;99.90
24800;DHT22;12897;50.812;4.430;2023-09-07T12:42:41;27.50;99.90
24800;DHT22;12897;50.812;4.430;2023-09-07T12:45:09;27.60;99.90
24800;DHT22;12897;50.812;4.430;2023-09-07T12:47:38;27.60;99.90
24800;DHT22;12897;50.812;4.430;2023-09-07T12:50:06;27.70;99.90
24800;DHT22;12897;50.812;4.430;2023-09-07T12:52:34;27.80;99.90
24800;DHT22;12897;50.812;4.430;2023-09-07T12:55:06;27.90;99.90
24800;DHT22;12897;50.812;4.430;2023-09-07T12:57:34;27.90;99.90
24800;DHT22;12897;50.812;4.430;2023-09-07T13:00:04;28.00;99.90
24800;DHT22;12897;50.812;4.430;2023-09-07T13:02:32;28.00;99.90
24800;DHT22;12897;50.812;4.430;2023-09-07T13:05:00;28.10;99.90
24800;DHT22;12897;50.812;4.430;2023-09-07T13:07:27;28.20;99.90
24800;DHT22;12897;50.812;4.430;2023-09-07T13:09:55;28.20;99.90
24800;DHT22;12897;50.812;4.430;2023-09-07T13:12:22;28.20;99.90
24800;DHT22;12897;50.812;4.430;2023-09-07T13:14:50;28.30;99.90
24800;DHT22;12897;50.812;4.430;2023-09-07T13:17:17;28.30;99.90
24800;DHT22;12897;50.812;4.430;2023-09-07T13:19:45;28.30;99.90
24800;DHT22;12897;50.812;4.430;2023-09-07T13:22:14;28.30;99.90
24800;DHT22;12897;50.812;4.430;2023-09-07T13:24:42;28.30;99.90
24800;DHT22;12897;50.812;4.430;2023-09-07T13:27:09;28.30;99.90
24800;DHT22;12897;50.812;4.430;2023-09-07T13:29:37;28.40;99.90
24800;DHT22;12897;50.812;4.430;2023-09-07T13:32:05;28.40;99.90
24800;DHT22;12897;50.812;4.430;2023-09-07T13:34:32;28.40;99.90
24800;DHT22;12897;50.812;4.430;2023-09-07T13:37:00;28.50;99.90
24800;DHT22;12897;50.812;4.430;2023-09-07T13:39:28;28.50;99.90
24800;DHT22;12897;50.812;4.430;2023-09-07T13:41:55;28.50;99.90
24800;DHT22;12897;50.812;4.430;2023-09-07T13:44:26;28.70;99.90
24800;DHT22;12897;50.812;4.430;2023-09-07T13:46:53;28.80;99.90
24800;DHT22;12897;50.812;4.430;2023-09-07T13:49:21;28.70;99.90
24800;DHT22;12897;50.812;4.430;2023-09-07T13:51:49;28.70;99.90
24800;DHT22;12897;50.812;4.430;2023-09-07T13:54:16;28.70;99.90
24800;DHT22;12897;50.812;4.430;2023-09-07T13:56:44;28.80;99.90
24800;DHT22;12897;50.812;4.430;2023-09-07T13:59:13;28.70;99.90
24800;DHT22;12897;50.812;4.430;2023-09-07T14:01:40;28.90;99.90
24800;DHT22;12897;50.812;4.430;2023-09-07T14:04:08;29.00;99.90
24800;DHT22;12897;50.812;4.430;2023-09-07T14:06:36;29.10;99.90
24800;DHT22;12897;50.812;4.430;2023-09-07T14:09:05;29.00;99.90
24800;DHT22;12897;50.812;4.430;2023-09-07T14:11:33;29.00;99.90
24800;DHT22;12897;50.812;4.430;2023-09-07T14:14:00;29.00;99.90
24800;DHT22;12897;50.812;4.430;2023-09-07T14:16:28;29.00;99.90
24800;DHT22;12897;50.812;4.430;2023-09-07T14:18:55;29.20;99.90
24800;DHT22;12897;50.812;4.430;2023-09-07T14:21:25;29.30;99.90
24800;DHT22;12897;50.812;4.430;2023-09-07T14:23:54;29.30;99.90
24800;DHT22;12897;50.812;4.430;2023-09-07T14:26:22;29.40;99.90
24800;DHT22;12897;50.812;4.430;2023-09-07T14:28:49;29.40;99.90
24800;DHT22;12897;50.812;4.430;2023-09-07T14:31:18;29.40;99.90
24800;DHT22;12897;50.812;4.430;2023-09-07T14:33:46;29.40;99.90
24800;DHT22;12897;50.812;4.430;2023-09-07T14:36:13;29.30;99.90
24800;DHT22;12897;50.812;4.430;2023-09-07T14:38:42;29.30;99.90
24800;DHT22;12897;50.812;4.430;2023-09-07T14:41:11;29.30;99.90
24800;DHT22;12897;50.812;4.430;2023-09-07T14:43:41;29.40;99.90
24800;DHT22;12897;50.812;4.430;2023-09-07T14:46:08;29.30;99.90
24800;DHT22;12897;50.812;4.430;2023-09-07T14:48:36;29.40;99.90
24800;DHT22;12897;50.812;4.430;2023-09-07T14:51:03;29.40;99.90
24800;DHT22;12897;50.812;4.430;2023-09-07T14:53:31;29.30;99.90
24800;DHT22;12897;50.812;4.430;2023-09-07T14:55:58;29.20;99.90
24800;DHT22;12897;50.812;4.430;2023-09-07T14:58:26;29.30;99.90
24800;DHT22;12897;50.812;4.430;2023-09-07T15:00:54;29.30;99.90
24800;DHT22;12897;50.812;4.430;2023-09-07T15:03:21;29.30;99.90
24800;DHT22;12897;50.812;4.430;2023-09-07T15:05:49;29.20;99.90
24800;DHT22;12897;50.812;4.430;2023-09-07T15:08:16;29.30;99.90
24800;DHT22;12897;50.812;4.430;2023-09-07T15:10:44;29.30;99.90
24800;DHT22;12897;50.812;4.430;2023-09-07T15:13:12;29.30;99.90
24800;DHT22;12897;50.812;4.430;2023-09-07T15:15:40;29.20;99.90
24800;DHT22;12897;50.812;4.430;2023-09-07T15:18:08;29.20;99.90
24800;DHT22;12897;50.812;4.430;2023-09-07T15:20:36;29.20;99.90
24800;DHT22;12897;50.812;4.430;2023-09-07T15:23:04;29.20;99.90
24800;DHT22;12897;50.812;4.430;2023-09-07T15:25:31;29.20;99.90
24800;DHT22;12897;50.812;4.430;2023-09-07T15:27:59;29.20;99.90
24800;DHT22;12897;50.812;4.430;2023-09-07T15:30:27;29.30;99.90
24800;DHT22;12897;50.812;4.430;2023-09-07T15:32:54;29.20;99.90
24800;DHT22;12897;50.812;4.430;2023-09-07T15:35:22;29.10;99.90
24800;DHT22;12897;50.812;4.430;2023-09-07T15:37:49;29.30;99.90